createdAt,value
2023-03-01T00:00:24.975Z,0.19
2023-03-01T00:03:48.642Z,0.18
2023-03-01T00:06:52.264Z,0.18
2023-03-01T00:09:55.530Z,0.18
2023-03-01T00:12:58.752Z,0.19
2023-03-01T00:16:06.663Z,0.18
2023-03-01T00:19:20.779Z,0.18
2023-03-01T00:22:24.486Z,0.16
2023-03-01T00:25:27.740Z,0.15
2023-03-01T00:28:30.970Z,0.14
2023-03-01T00:31:35.244Z,0.12
2023-03-01T00:34:38.524Z,0.10
2023-03-01T00:37:42.460Z,0.09
2023-03-01T00:40:45.703Z,0.08
2023-03-01T00:43:49.443Z,0.07
2023-03-01T00:46:52.674Z,0.06
2023-03-01T00:49:55.853Z,0.05
2023-03-01T00:52:59.261Z,0.05
2023-03-01T00:56:03.660Z,0.05
2023-03-01T00:59:06.888Z,0.03
2023-03-01T01:02:10.275Z,0.01
2023-03-01T01:05:13.801Z,0.00
2023-03-01T01:08:17.023Z,-0.02
2023-03-01T01:11:21.739Z,-0.04
2023-03-01T01:14:25.031Z,-0.07
2023-03-01T01:17:28.319Z,-0.09
2023-03-01T01:20:33.816Z,-0.10
2023-03-01T01:23:38.449Z,-0.11
2023-03-01T01:26:42.786Z,-0.12
2023-03-01T01:29:46.087Z,-0.12
2023-03-01T01:32:49.351Z,-0.13
2023-03-01T01:35:53.288Z,-0.15
2023-03-01T01:38:56.655Z,-0.16
2023-03-01T01:42:01.850Z,-0.16
2023-03-01T01:45:33.103Z,-0.17
2023-03-01T01:48:47.701Z,-0.18
2023-03-01T01:51:55.077Z,-0.19
2023-03-01T01:55:12.795Z,-0.22
2023-03-01T01:58:20.273Z,-0.24
2023-03-01T02:01:23.813Z,-0.27
2023-03-01T02:04:27.301Z,-0.29
2023-03-01T02:07:31.349Z,-0.31
2023-03-01T02:10:35.952Z,-0.33
2023-03-01T02:13:40.193Z,-0.34
2023-03-01T02:16:44.123Z,-0.35
2023-03-01T02:20:15.355Z,-0.35
2023-03-01T02:23:18.922Z,-0.36
2023-03-01T02:26:35.981Z,-0.36
2023-03-01T02:29:39.603Z,-0.38
2023-03-01T02:32:43.145Z,-0.40
2023-03-01T02:35:46.851Z,-0.42
2023-03-01T02:38:54.479Z,-0.43
2023-03-01T02:42:00.003Z,-0.44
2023-03-01T02:45:04.383Z,-0.45
2023-03-01T02:48:07.758Z,-0.47
2023-03-01T02:51:43.699Z,-0.48
2023-03-01T02:54:59.097Z,-0.48
2023-03-01T02:58:04.448Z,-0.49
2023-03-01T03:01:10.276Z,-0.51
2023-03-01T03:04:19.127Z,-0.52
2023-03-01T03:07:23.991Z,-0.54
2023-03-01T03:10:33.535Z,-0.55
2023-03-01T03:13:36.800Z,-0.56
2023-03-01T03:16:46.072Z,-0.57
2023-03-01T03:19:49.542Z,-0.58
2023-03-01T03:22:55.100Z,-0.59
2023-03-01T03:25:58.237Z,-0.61
2023-03-01T03:29:01.998Z,-0.61
2023-03-01T03:32:05.382Z,-0.62
2023-03-01T03:35:10.835Z,-0.63
2023-03-01T03:38:16.921Z,-0.64
2023-03-01T03:41:20.174Z,-0.66
2023-03-01T03:44:23.382Z,-0.68
2023-03-01T03:47:26.649Z,-0.69
2023-03-01T03:50:30.340Z,-0.71
2023-03-01T03:53:33.652Z,-0.73
2023-03-01T03:56:37.643Z,-0.74
2023-03-01T03:59:41.947Z,-0.76
2023-03-01T04:02:46.223Z,-0.77
2023-03-01T04:05:51.652Z,-0.79
2023-03-01T04:08:59.222Z,-0.81
2023-03-01T04:12:02.445Z,-0.84
2023-03-01T04:15:14.094Z,-0.85
2023-03-01T04:18:18.936Z,-0.88
2023-03-01T04:21:22.835Z,-0.90
2023-03-01T04:24:26.091Z,-0.92
2023-03-01T04:27:29.543Z,-0.94
2023-03-01T04:30:36.748Z,-0.95
2023-03-01T04:33:55.087Z,-0.96
2023-03-01T04:36:58.346Z,-0.97
2023-03-01T04:40:13.310Z,-0.97
2023-03-01T04:43:16.605Z,-0.97
2023-03-01T04:46:21.986Z,-0.97
2023-03-01T04:49:25.336Z,-0.96
2023-03-01T04:52:28.539Z,-0.95
2023-03-01T04:55:32.571Z,-0.96
2023-03-01T04:58:35.996Z,-0.98
2023-03-01T05:01:40.185Z,-0.99
2023-03-01T05:04:43.457Z,-1.00
2023-03-01T05:07:46.652Z,-1.02
2023-03-01T05:10:52.523Z,-1.04
2023-03-01T05:13:56.494Z,-1.05
2023-03-01T05:17:04.946Z,-1.07
2023-03-01T05:20:11.860Z,-1.07
2023-03-01T05:23:15.080Z,-1.09
2023-03-01T05:26:28.785Z,-1.09
2023-03-01T05:29:35.877Z,-1.08
2023-03-01T05:32:39.093Z,-1.07
2023-03-01T05:35:44.212Z,-1.07
2023-03-01T05:38:47.416Z,-1.07
2023-03-01T05:42:02.192Z,-1.08
2023-03-01T05:45:05.688Z,-1.08
2023-03-01T05:48:10.199Z,-1.09
2023-03-01T05:51:13.449Z,-1.11
2023-03-01T05:54:17.111Z,-1.12
2023-03-01T05:57:21.296Z,-1.13
2023-03-01T06:00:24.723Z,-1.13
2023-03-01T06:03:27.948Z,-1.13
2023-03-01T06:06:35.715Z,-1.13
2023-03-01T06:09:38.905Z,-1.12
2023-03-01T06:12:43.486Z,-1.12
2023-03-01T06:15:46.718Z,-1.11
2023-03-01T06:18:49.972Z,-1.10
2023-03-01T06:21:53.264Z,-1.09
2023-03-01T06:24:56.519Z,-1.07
2023-03-01T06:27:59.813Z,-1.05
2023-03-01T06:31:03.504Z,-1.03
2023-03-01T06:34:06.790Z,-1.00
2023-03-01T06:37:10.058Z,-0.98
2023-03-01T06:40:14.892Z,-0.94
2023-03-01T06:43:18.226Z,-0.90
2023-03-01T06:46:22.632Z,-0.83
2023-03-01T06:49:25.932Z,-0.73
2023-03-01T06:52:30.492Z,-0.63
2023-03-01T06:55:33.883Z,-0.52
2023-03-01T06:58:37.610Z,-0.42
2023-03-01T07:01:40.912Z,-0.30
2023-03-01T07:04:44.166Z,-0.18
2023-03-01T07:07:47.464Z,-0.06
2023-03-01T07:10:56.966Z,0.07
2023-03-01T07:14:01.142Z,0.22
2023-03-01T07:17:04.373Z,0.36
2023-03-01T07:20:07.960Z,0.50
2023-03-01T07:23:11.204Z,0.63
2023-03-01T07:26:14.367Z,0.75
2023-03-01T07:29:18.796Z,0.88
2023-03-01T07:32:22.161Z,1.00
2023-03-01T07:35:28.503Z,1.10
2023-03-01T07:38:32.398Z,1.21
2023-03-01T07:41:35.770Z,1.31
2023-03-01T07:44:39.080Z,1.41
2023-03-01T07:47:42.418Z,1.53
2023-03-01T07:50:48.944Z,1.64
2023-03-01T07:53:52.166Z,1.74
2023-03-01T07:58:09.815Z,1.85
2023-03-01T08:01:16.541Z,2.00
2023-03-01T08:04:20.081Z,2.10
2023-03-01T08:07:23.491Z,2.20
2023-03-01T08:10:26.902Z,2.29
2023-03-01T08:13:31.008Z,2.35
2023-03-01T08:16:36.397Z,2.41
2023-03-01T08:19:39.730Z,2.46
2023-03-01T08:22:43.025Z,2.51
2023-03-01T08:25:46.327Z,2.56
2023-03-01T08:28:50.656Z,2.59
2023-03-01T08:31:54.184Z,2.61
2023-03-01T08:34:57.780Z,2.64
2023-03-01T08:38:01.350Z,2.68
2023-03-01T08:41:05.490Z,2.73
2023-03-01T08:44:10.605Z,2.76
2023-03-01T08:47:14.152Z,2.80
2023-03-01T08:50:17.521Z,2.86
2023-03-01T08:53:20.902Z,2.92
2023-03-01T08:56:24.182Z,3.00
2023-03-01T08:59:28.122Z,3.10
2023-03-01T09:02:31.587Z,3.21
2023-03-01T09:05:35.528Z,3.32
2023-03-01T09:08:41.378Z,3.45
2023-03-01T09:11:51.178Z,3.63
2023-03-01T09:14:57.819Z,3.83
2023-03-01T09:18:01.471Z,4.01
2023-03-01T09:21:09.707Z,4.20
2023-03-01T09:24:15.795Z,4.40
2023-03-01T09:27:20.722Z,4.63
2023-03-01T09:30:25.264Z,4.83
2023-03-01T09:33:30.924Z,5.03
2023-03-01T09:36:35.160Z,5.24
2023-03-01T09:39:38.508Z,5.43
2023-03-01T09:42:53.771Z,5.62
2023-03-01T09:46:04.580Z,5.79
2023-03-01T09:49:15.463Z,5.93
2023-03-01T09:52:28.000Z,6.02
2023-03-01T09:55:32.867Z,6.10
2023-03-01T09:58:40.952Z,6.17
2023-03-01T10:02:22.666Z,6.21
2023-03-01T10:05:44.293Z,6.27
2023-03-01T10:08:56.055Z,6.31
2023-03-01T10:12:02.462Z,6.33
2023-03-01T10:15:13.695Z,6.34
2023-03-01T10:18:22.469Z,6.34
2023-03-01T10:21:28.448Z,6.35
2023-03-01T10:24:36.646Z,6.40
2023-03-01T10:27:45.702Z,6.46
2023-03-01T10:30:49.216Z,6.51
2023-03-01T10:33:56.044Z,6.57
2023-03-01T10:37:11.069Z,6.62
2023-03-01T10:40:14.570Z,6.71
2023-03-01T10:43:18.698Z,6.80
2023-03-01T10:46:29.843Z,6.88
2023-03-01T10:49:33.215Z,7.01
2023-03-01T10:52:38.869Z,7.19
2023-03-01T10:55:42.321Z,7.38
2023-03-01T10:59:21.075Z,7.56
2023-03-01T11:02:31.165Z,7.82
2023-03-01T11:05:34.764Z,8.04
2023-03-01T11:08:44.303Z,8.25
2023-03-01T11:11:56.038Z,8.47
2023-03-01T11:14:59.379Z,8.68
2023-03-01T11:18:13.929Z,8.87
2023-03-01T11:21:18.272Z,9.04
2023-03-01T11:24:30.202Z,9.16
2023-03-01T11:27:37.197Z,9.29
2023-03-01T11:31:06.738Z,9.38
2023-03-01T11:34:18.877Z,9.46
2023-03-01T11:37:33.687Z,9.49
2023-03-01T11:40:43.432Z,9.52
2023-03-01T11:44:12.841Z,9.55
2023-03-01T11:47:44.819Z,9.60
2023-03-01T11:50:49.965Z,9.67
2023-03-01T11:54:28.576Z,9.72
2023-03-01T11:57:43.811Z,9.76
2023-03-01T12:01:15.278Z,9.78
2023-03-01T12:04:42.930Z,9.81
2023-03-01T12:07:55.251Z,9.82
2023-03-01T12:11:13.476Z,9.81
2023-03-01T12:14:35.166Z,9.83
2023-03-01T12:18:13.785Z,9.85
2023-03-01T12:21:33.506Z,9.87
2023-03-01T12:24:58.622Z,9.90
2023-03-01T12:28:04.811Z,9.94
2023-03-01T12:31:31.357Z,9.96
2023-03-01T12:34:42.626Z,9.98
2023-03-01T12:38:12.349Z,10.02
2023-03-01T12:41:37.256Z,10.02
2023-03-01T12:44:40.529Z,10.00
2023-03-01T12:48:16.564Z,10.00
2023-03-01T12:51:25.365Z,10.01
2023-03-01T12:54:32.760Z,10.00
2023-03-01T12:57:44.127Z,9.94
2023-03-01T13:00:54.012Z,9.87
2023-03-01T13:04:00.975Z,9.79
2023-03-01T13:07:22.757Z,9.69
2023-03-01T13:10:56.667Z,9.57
2023-03-01T13:14:21.493Z,9.44
2023-03-01T13:17:44.200Z,9.30
2023-03-01T13:20:50.804Z,9.16
2023-03-01T13:23:54.107Z,9.03
2023-03-01T13:27:51.088Z,8.89
2023-03-01T13:30:54.394Z,8.74
2023-03-01T13:34:01.971Z,8.65
2023-03-01T13:37:19.579Z,8.54
2023-03-01T13:40:23.680Z,8.45
2023-03-01T13:43:37.280Z,8.39
2023-03-01T13:46:41.334Z,8.32
2023-03-01T13:49:47.679Z,8.25
2023-03-01T13:53:00.163Z,8.18
2023-03-01T13:56:09.150Z,8.12
2023-03-01T13:59:18.650Z,8.07
2023-03-01T14:02:21.834Z,8.03
2023-03-01T14:05:25.112Z,7.99
2023-03-01T14:08:30.172Z,7.97
2023-03-01T14:11:45.309Z,7.94
2023-03-01T14:15:19.885Z,7.89
2023-03-01T14:18:34.546Z,7.85
2023-03-01T14:21:37.988Z,7.81
2023-03-01T14:24:48.627Z,7.78
2023-03-01T14:28:02.933Z,7.76
2023-03-01T14:31:52.430Z,7.76
2023-03-01T14:34:57.778Z,7.75
2023-03-01T14:38:01.308Z,7.75
2023-03-01T14:41:13.730Z,7.72
2023-03-01T14:44:20.746Z,7.69
2023-03-01T14:47:27.129Z,7.66
2023-03-01T14:50:36.230Z,7.62
2023-03-01T14:53:50.375Z,7.56
2023-03-01T14:56:58.873Z,7.52
2023-03-01T15:00:06.484Z,7.49
2023-03-01T15:03:15.735Z,7.46
2023-03-01T15:06:22.701Z,7.44
2023-03-01T15:09:26.036Z,7.40
2023-03-01T15:12:29.190Z,7.37
2023-03-01T15:15:37.506Z,7.32
2023-03-01T15:18:49.604Z,7.27
2023-03-01T15:21:52.983Z,7.23
2023-03-01T15:24:56.735Z,7.18
2023-03-01T15:28:02.391Z,7.12
2023-03-01T15:31:20.252Z,7.06
2023-03-01T15:34:33.198Z,6.99
2023-03-01T15:37:41.281Z,6.93
2023-03-01T15:40:51.543Z,6.87
2023-03-01T15:43:56.884Z,6.79
2023-03-01T15:47:01.483Z,6.73
2023-03-01T15:50:05.442Z,6.66
2023-03-01T15:53:13.126Z,6.60
2023-03-01T15:56:16.463Z,6.52
2023-03-01T15:59:20.409Z,6.45
2023-03-01T16:02:25.411Z,6.37
2023-03-01T16:05:31.709Z,6.29
2023-03-01T16:08:34.936Z,6.19
2023-03-01T16:11:39.193Z,6.12
2023-03-01T16:14:43.071Z,6.04
2023-03-01T16:17:47.174Z,5.96
2023-03-01T16:20:55.227Z,5.87
2023-03-01T16:23:58.643Z,5.78
2023-03-01T16:27:01.910Z,5.69
2023-03-01T16:30:07.316Z,5.60
2023-03-01T16:33:25.185Z,5.50
2023-03-01T16:36:34.209Z,5.40
2023-03-01T16:39:39.721Z,5.32
2023-03-01T16:42:43.200Z,5.24
2023-03-01T16:45:47.561Z,5.17
2023-03-01T16:48:52.364Z,5.10
2023-03-01T16:51:55.631Z,5.03
2023-03-01T16:54:58.840Z,4.96
2023-03-01T16:58:02.605Z,4.88
2023-03-01T17:01:20.359Z,4.81
2023-03-01T17:04:23.587Z,4.73
2023-03-01T17:07:27.144Z,4.66
2023-03-01T17:10:30.429Z,4.60
2023-03-01T17:13:33.764Z,4.53
2023-03-01T17:16:39.433Z,4.48
2023-03-01T17:19:44.530Z,4.42
2023-03-01T17:22:52.765Z,4.37
2023-03-01T17:25:56.406Z,4.32
2023-03-01T17:29:04.043Z,4.27
2023-03-01T17:32:08.396Z,4.22
2023-03-01T17:35:12.533Z,4.17
2023-03-01T17:38:18.929Z,4.12
2023-03-01T17:41:25.140Z,4.07
2023-03-01T17:44:36.720Z,4.02
2023-03-01T17:47:40.630Z,3.97
2023-03-01T17:50:44.842Z,3.93
2023-03-01T17:53:48.047Z,3.88
2023-03-01T17:56:51.690Z,3.87
2023-03-01T17:59:55.062Z,3.85
2023-03-01T18:02:59.159Z,3.81
2023-03-01T18:06:02.938Z,3.77
2023-03-01T18:09:06.376Z,3.74
2023-03-01T18:12:10.891Z,3.70
2023-03-01T18:15:14.130Z,3.67
2023-03-01T18:18:17.942Z,3.64
2023-03-01T18:21:21.620Z,3.62
2023-03-01T18:24:24.941Z,3.59
2023-03-01T18:27:28.177Z,3.57
2023-03-01T18:30:32.863Z,3.54
2023-03-01T18:33:36.238Z,3.52
2023-03-01T18:36:41.405Z,3.48
2023-03-01T18:39:44.752Z,3.46
2023-03-01T18:42:48.113Z,3.44
2023-03-01T18:45:57.630Z,3.41
2023-03-01T18:49:00.987Z,3.39
2023-03-01T18:52:04.739Z,3.35
2023-03-01T18:55:08.306Z,3.32
2023-03-01T18:58:11.490Z,3.29
2023-03-01T19:01:26.852Z,3.25
2023-03-01T19:04:30.119Z,3.21
2023-03-01T19:07:35.463Z,3.17
2023-03-01T19:10:38.780Z,3.12
2023-03-01T19:13:42.005Z,3.08
2023-03-01T19:16:45.309Z,3.03
2023-03-01T19:19:50.165Z,2.99
2023-03-01T19:22:53.433Z,2.95
2023-03-01T19:26:11.554Z,2.91
2023-03-01T19:29:14.897Z,2.86
2023-03-01T19:32:18.326Z,2.83
2023-03-01T19:35:23.472Z,2.79
2023-03-01T19:38:28.136Z,2.75
2023-03-01T19:41:31.828Z,2.72
2023-03-01T19:44:35.085Z,2.68
2023-03-01T19:47:38.366Z,2.65
2023-03-01T19:50:45.166Z,2.61
2023-03-01T19:53:48.632Z,2.58
2023-03-01T19:56:52.038Z,2.53
2023-03-01T19:59:55.273Z,2.49
2023-03-01T20:02:58.701Z,2.45
2023-03-01T20:06:10.974Z,2.41
2023-03-01T20:09:21.347Z,2.38
2023-03-01T20:12:25.003Z,2.34
2023-03-01T20:15:28.656Z,2.30
2023-03-01T20:18:32.153Z,2.27
2023-03-01T20:21:35.500Z,2.26
2023-03-01T20:24:38.777Z,2.24
2023-03-01T20:27:47.141Z,2.22
2023-03-01T20:30:50.347Z,2.21
2023-03-01T20:33:58.512Z,2.20
2023-03-01T20:37:02.827Z,2.18
2023-03-01T20:40:07.309Z,2.17
2023-03-01T20:43:10.643Z,2.17
2023-03-01T20:46:15.138Z,2.15
2023-03-01T20:49:18.590Z,2.13
2023-03-01T20:52:21.912Z,2.13
2023-03-01T20:55:25.250Z,2.12
2023-03-01T20:58:32.734Z,2.10
2023-03-01T21:01:37.902Z,2.08
2023-03-01T21:04:41.207Z,2.05
2023-03-01T21:07:45.676Z,2.01
2023-03-01T21:10:53.199Z,1.97
2023-03-01T21:13:58.433Z,1.95
2023-03-01T21:17:01.579Z,1.92
2023-03-01T21:20:05.974Z,1.88
2023-03-01T21:23:09.825Z,1.84
2023-03-01T21:26:15.824Z,1.81
2023-03-01T21:29:19.055Z,1.77
2023-03-01T21:32:22.407Z,1.74
2023-03-01T21:35:25.784Z,1.73
2023-03-01T21:38:37.916Z,1.71
2023-03-01T21:41:41.258Z,1.69
2023-03-01T21:44:44.453Z,1.67
2023-03-01T21:47:47.638Z,1.65
2023-03-01T21:50:58.793Z,1.63
2023-03-01T21:54:02.912Z,1.59
2023-03-01T21:57:06.125Z,1.56
2023-03-01T22:00:11.270Z,1.53
2023-03-01T22:03:16.561Z,1.50
2023-03-01T22:06:29.675Z,1.47
2023-03-01T22:09:35.023Z,1.46
2023-03-01T22:12:38.319Z,1.44
2023-03-01T22:15:43.230Z,1.43
2023-03-01T22:18:47.116Z,1.41
2023-03-01T22:21:52.772Z,1.41
2023-03-01T22:24:55.998Z,1.39
2023-03-01T22:27:59.363Z,1.39
2023-03-01T22:31:06.333Z,1.37
2023-03-01T22:34:09.939Z,1.37
2023-03-01T22:37:13.432Z,1.36
2023-03-01T22:40:16.670Z,1.35
2023-03-01T22:43:19.901Z,1.34
2023-03-01T22:46:24.114Z,1.32
2023-03-01T22:49:27.371Z,1.31
2023-03-01T22:52:30.598Z,1.30
2023-03-01T22:55:33.794Z,1.28
2023-03-01T22:58:37.070Z,1.26
2023-03-01T23:01:42.292Z,1.24
2023-03-01T23:04:48.388Z,1.22
2023-03-01T23:07:51.585Z,1.20
2023-03-01T23:10:54.804Z,1.18
2023-03-01T23:13:58.755Z,1.18
2023-03-01T23:17:02.697Z,1.16
2023-03-01T23:20:10.504Z,1.15
2023-03-01T23:23:13.987Z,1.15
2023-03-01T23:26:18.462Z,1.14
2023-03-01T23:29:22.291Z,1.12
2023-03-01T23:32:25.914Z,1.13
2023-03-01T23:35:29.253Z,1.12
2023-03-01T23:38:32.684Z,1.10
2023-03-01T23:41:36.022Z,1.09
2023-03-01T23:44:40.874Z,1.08
2023-03-01T23:47:44.414Z,1.06
2023-03-01T23:50:48.397Z,1.04
2023-03-01T23:53:55.664Z,1.02
2023-03-01T23:56:59.005Z,1.01
